sensor_id;sensor_type;location;lat;lon;timestamp;temperature;humidity
40257;DHT22;25977;45.462;9.210;2023-06-04T00:00:05;22.70;81.80
40257;DHT22;25977;45.462;9.210;2023-06-04T00:02:32;22.60;82.20
40257;DHT22;25977;45.462;9.210;2023-06-04T00:04:58;22.60;82.20
40257;DHT22;25977;45.462;9.210;2023-06-04T00:07:23;22.70;82.10
40257;DHT22;25977;45.462;9.210;2023-06-04T00:09:49;22.80;81.90
40257;DHT22;25977;45.462;9.210;2023-06-04T00:12:15;22.70;81.80
40257;DHT22;25977;45.462;9.210;2023-06-04T00:14:41;22.60;82.20
40257;DHT22;25977;45.462;9.210;2023-06-04T00:17:08;22.60;82.40
40257;DHT22;25977;45.462;9.210;2023-06-04T00:19:34;22.60;82.40
40257;DHT22;25977;45.462;9.210;2023-06-04T00:22:00;22.60;82.50
40257;DHT22;25977;45.462;9.210;2023-06-04T00:24:26;22.60;82.50
40257;DHT22;25977;45.462;9.210;2023-06-04T00:26:51;22.50;82.70
40257;DHT22;25977;45.462;9.210;2023-06-04T00:29:17;22.60;82.70
40257;DHT22;25977;45.462;9.210;2023-06-04T00:31:43;22.60;82.70
40257;DHT22;25977;45.462;9.210;2023-06-04T00:34:10;22.60;82.50
40257;DHT22;25977;45.462;9.210;2023-06-04T00:36:36;22.50;82.70
40257;DHT22;25977;45.462;9.210;2023-06-04T00:39:02;22.40;82.90
40257;DHT22;25977;45.462;9.210;2023-06-04T00:41:27;22.40;83.10
40257;DHT22;25977;45.462;9.210;2023-06-04T00:43:53;22.60;82.70
40257;DHT22;25977;45.462;9.210;2023-06-04T00:46:25;22.60;82.40
40257;DHT22;25977;45.462;9.210;2023-06-04T00:48:52;22.60;82.20
40257;DHT22;25977;45.462;9.210;2023-06-04T00:51:19;22.50;82.10
40257;DHT22;25977;45.462;9.210;2023-06-04T00:53:47;22.50;82.00
40257;DHT22;25977;45.462;9.210;2023-06-04T00:56:13;22.50;81.70
40257;DHT22;25977;45.462;9.210;2023-06-04T00:58:39;22.40;81.90
40257;DHT22;25977;45.462;9.210;2023-06-04T01:03:55;22.30;81.10
40257;DHT22;25977;45.462;9.210;2023-06-04T01:06:34;22.30;82.10
40257;DHT22;25977;45.462;9.210;2023-06-04T01:09:02;22.30;81.50
40257;DHT22;25977;45.462;9.210;2023-06-04T01:11:46;22.20;81.80
40257;DHT22;25977;45.462;9.210;2023-06-04T01:14:11;22.20;81.90
40257;DHT22;25977;45.462;9.210;2023-06-04T01:16:59;22.30;81.70
40257;DHT22;25977;45.462;9.210;2023-06-04T01:19:36;22.30;81.90
40257;DHT22;25977;45.462;9.210;2023-06-04T01:22:14;22.10;82.30
40257;DHT22;25977;45.462;9.210;2023-06-04T01:24:52;22.10;82.40
40257;DHT22;25977;45.462;9.210;2023-06-04T01:27:22;22.10;82.50
40257;DHT22;25977;45.462;9.210;2023-06-04T01:29:48;22.20;82.50
40257;DHT22;25977;45.462;9.210;2023-06-04T01:32:16;22.10;82.40
40257;DHT22;25977;45.462;9.210;2023-06-04T01:34:46;22.20;82.20
40257;DHT22;25977;45.462;9.210;2023-06-04T01:37:11;22.10;82.50
40257;DHT22;25977;45.462;9.210;2023-06-04T01:39:38;22.10;82.60
40257;DHT22;25977;45.462;9.210;2023-06-04T01:42:04;22.20;82.30
40257;DHT22;25977;45.462;9.210;2023-06-04T01:44:30;22.30;82.20
40257;DHT22;25977;45.462;9.210;2023-06-04T01:46:55;22.30;82.10
40257;DHT22;25977;45.462;9.210;2023-06-04T01:49:21;22.10;82.40
40257;DHT22;25977;45.462;9.210;2023-06-04T01:51:46;22.00;83.10
40257;DHT22;25977;45.462;9.210;2023-06-04T01:54:12;21.90;83.30
40257;DHT22;25977;45.462;9.210;2023-06-04T01:56:38;21.90;83.50
40257;DHT22;25977;45.462;9.210;2023-06-04T01:59:04;21.80;83.60
40257;DHT22;25977;45.462;9.210;2023-06-04T02:01:29;21.70;83.70
40257;DHT22;25977;45.462;9.210;2023-06-04T02:03:55;21.70;84.00
40257;DHT22;25977;45.462;9.210;2023-06-04T02:06:21;21.80;83.70
40257;DHT22;25977;45.462;9.210;2023-06-04T02:08:46;21.80;83.60
40257;DHT22;25977;45.462;9.210;2023-06-04T02:11:12;21.80;83.90
40257;DHT22;25977;45.462;9.210;2023-06-04T02:13:38;21.70;84.20
40257;DHT22;25977;45.462;9.210;2023-06-04T02:16:04;21.80;83.90
40257;DHT22;25977;45.462;9.210;2023-06-04T02:18:30;21.80;84.10
40257;DHT22;25977;45.462;9.210;2023-06-04T02:20:57;21.80;83.70
40257;DHT22;25977;45.462;9.210;2023-06-04T02:23:23;21.80;83.90
40257;DHT22;25977;45.462;9.210;2023-06-04T02:25:49;21.60;84.40
40257;DHT22;25977;45.462;9.210;2023-06-04T02:28:15;21.80;84.10
40257;DHT22;25977;45.462;9.210;2023-06-04T02:30:41;21.80;83.90
40257;DHT22;25977;45.462;9.210;2023-06-04T02:33:07;21.60;84.00
40257;DHT22;25977;45.462;9.210;2023-06-04T02:35:35;21.50;84.50
40257;DHT22;25977;45.462;9.210;2023-06-04T02:38:01;21.70;84.30
40257;DHT22;25977;45.462;9.210;2023-06-04T02:40:27;21.70;84.40
40257;DHT22;25977;45.462;9.210;2023-06-04T02:42:54;21.60;84.60
40257;DHT22;25977;45.462;9.210;2023-06-04T02:45:21;21.70;84.30
40257;DHT22;25977;45.462;9.210;2023-06-04T02:47:47;21.70;84.50
40257;DHT22;25977;45.462;9.210;2023-06-04T02:50:14;21.60;84.70
40257;DHT22;25977;45.462;9.210;2023-06-04T02:52:40;21.70;84.70
40257;DHT22;25977;45.462;9.210;2023-06-04T02:55:07;21.80;84.30
40257;DHT22;25977;45.462;9.210;2023-06-04T02:57:33;21.80;84.30
40257;DHT22;25977;45.462;9.210;2023-06-04T02:59:59;21.80;84.30
40257;DHT22;25977;45.462;9.210;2023-06-04T03:02:25;21.80;84.40
40257;DHT22;25977;45.462;9.210;2023-06-04T03:04:52;21.70;84.40
40257;DHT22;25977;45.462;9.210;2023-06-04T03:07:20;21.70;84.60
40257;DHT22;25977;45.462;9.210;2023-06-04T03:09:48;21.80;85.10
40257;DHT22;25977;45.462;9.210;2023-06-04T03:12:14;21.90;84.60
40257;DHT22;25977;45.462;9.210;2023-06-04T03:14:40;21.80;84.50
40257;DHT22;25977;45.462;9.210;2023-06-04T03:17:06;21.90;84.40
40257;DHT22;25977;45.462;9.210;2023-06-04T03:19:40;21.90;84.30
40257;DHT22;25977;45.462;9.210;2023-06-04T03:22:08;21.90;84.20
40257;DHT22;25977;45.462;9.210;2023-06-04T03:24:39;21.90;84.10
40257;DHT22;25977;45.462;9.210;2023-06-04T03:27:05;22.00;84.10
40257;DHT22;25977;45.462;9.210;2023-06-04T03:29:33;22.00;84.20
40257;DHT22;25977;45.462;9.210;2023-06-04T03:32:01;22.00;84.00
40257;DHT22;25977;45.462;9.210;2023-06-04T03:34:28;22.00;84.00
40257;DHT22;25977;45.462;9.210;2023-06-04T03:36:57;22.00;84.00
40257;DHT22;25977;45.462;9.210;2023-06-04T03:39:24;22.00;83.80
40257;DHT22;25977;45.462;9.210;2023-06-04T03:41:50;22.00;83.70
40257;DHT22;25977;45.462;9.210;2023-06-04T03:44:18;21.90;84.00
40257;DHT22;25977;45.462;9.210;2023-06-04T03:46:45;21.80;83.90
40257;DHT22;25977;45.462;9.210;2023-06-04T03:49:13;21.70;84.30
40257;DHT22;25977;45.462;9.210;2023-06-04T03:51:40;21.60;84.60
40257;DHT22;25977;45.462;9.210;2023-06-04T03:54:07;21.70;84.40
40257;DHT22;25977;45.462;9.210;2023-06-04T03:56:33;21.60;84.30
40257;DHT22;25977;45.462;9.210;2023-06-04T03:58:59;21.50;83.80
40257;DHT22;25977;45.462;9.210;2023-06-04T04:01:26;21.60;84.00
40257;DHT22;25977;45.462;9.210;2023-06-04T04:03:52;21.60;84.10
40257;DHT22;25977;45.462;9.210;2023-06-04T04:06:19;21.50;84.30
40257;DHT22;25977;45.462;9.210;2023-06-04T04:08:45;21.70;83.90
40257;DHT22;25977;45.462;9.210;2023-06-04T04:11:16;21.60;82.60
40257;DHT22;25977;45.462;9.210;2023-06-04T04:13:43;21.60;82.60
40257;DHT22;25977;45.462;9.210;2023-06-04T04:16:10;21.50;82.50
40257;DHT22;25977;45.462;9.210;2023-06-04T04:18:36;21.40;83.10
40257;DHT22;25977;45.462;9.210;2023-06-04T04:21:03;21.50;83.00
40257;DHT22;25977;45.462;9.210;2023-06-04T04:23:30;21.50;82.90
40257;DHT22;25977;45.462;9.210;2023-06-04T04:26:00;21.50;82.80
40257;DHT22;25977;45.462;9.210;2023-06-04T04:28:28;21.60;82.60
40257;DHT22;25977;45.462;9.210;2023-06-04T04:30:55;21.60;82.60
40257;DHT22;25977;45.462;9.210;2023-06-04T04:33:29;21.60;82.50
40257;DHT22;25977;45.462;9.210;2023-06-04T04:35:59;21.60;82.50
40257;DHT22;25977;45.462;9.210;2023-06-04T04:38:26;21.70;82.70
40257;DHT22;25977;45.462;9.210;2023-06-04T04:40:59;21.70;82.70
40257;DHT22;25977;45.462;9.210;2023-06-04T04:43:34;21.70;82.70
40257;DHT22;25977;45.462;9.210;2023-06-04T04:46:29;21.70;82.70
40257;DHT22;25977;45.462;9.210;2023-06-04T04:48:55;21.70;82.80
40257;DHT22;25977;45.462;9.210;2023-06-04T04:51:21;21.70;82.60
40257;DHT22;25977;45.462;9.210;2023-06-04T04:53:47;21.70;82.50
40257;DHT22;25977;45.462;9.210;2023-06-04T04:56:14;21.70;82.50
40257;DHT22;25977;45.462;9.210;2023-06-04T04:58:43;21.80;82.60
40257;DHT22;25977;45.462;9.210;2023-06-04T05:01:10;21.70;82.50
40257;DHT22;25977;45.462;9.210;2023-06-04T05:03:36;21.70;82.50
40257;DHT22;25977;45.462;9.210;2023-06-04T05:06:02;21.80;82.70
40257;DHT22;25977;45.462;9.210;2023-06-04T05:08:28;21.70;82.50
40257;DHT22;25977;45.462;9.210;2023-06-04T05:10:54;21.60;82.40
40257;DHT22;25977;45.462;9.210;2023-06-04T05:13:20;21.60;82.40
40257;DHT22;25977;45.462;9.210;2023-06-04T05:15:51;21.60;82.40
40257;DHT22;25977;45.462;9.210;2023-06-04T05:18:20;21.60;82.40
40257;DHT22;25977;45.462;9.210;2023-06-04T05:20:47;21.60;82.60
40257;DHT22;25977;45.462;9.210;2023-06-04T05:23:13;21.50;82.80
40257;DHT22;25977;45.462;9.210;2023-06-04T05:25:40;21.60;83.20
40257;DHT22;25977;45.462;9.210;2023-06-04T05:28:06;21.60;82.70
40257;DHT22;25977;45.462;9.210;2023-06-04T05:30:33;21.50;82.50
40257;DHT22;25977;45.462;9.210;2023-06-04T05:33:01;21.60;82.20
40257;DHT22;25977;45.462;9.210;2023-06-04T05:35:28;21.60;81.90
40257;DHT22;25977;45.462;9.210;2023-06-04T05:37:54;21.50;81.90
40257;DHT22;25977;45.462;9.210;2023-06-04T05:40:22;21.50;81.60
40257;DHT22;25977;45.462;9.210;2023-06-04T05:42:49;21.50;81.20
40257;DHT22;25977;45.462;9.210;2023-06-04T05:45:15;21.50;80.10
40257;DHT22;25977;45.462;9.210;2023-06-04T05:47:42;21.40;80.80
40257;DHT22;25977;45.462;9.210;2023-06-04T05:50:09;21.50;80.20
40257;DHT22;25977;45.462;9.210;2023-06-04T05:52:35;21.60;79.90
40257;DHT22;25977;45.462;9.210;2023-06-04T05:55:02;21.90;79.40
40257;DHT22;25977;45.462;9.210;2023-06-04T05:57:28;22.20;78.70
40257;DHT22;25977;45.462;9.210;2023-06-04T05:59:56;22.20;78.60
40257;DHT22;25977;45.462;9.210;2023-06-04T06:02:21;22.20;78.60
40257;DHT22;25977;45.462;9.210;2023-06-04T06:04:47;22.20;78.70
40257;DHT22;25977;45.462;9.210;2023-06-04T06:07:13;22.20;78.90
40257;DHT22;25977;45.462;9.210;2023-06-04T06:09:39;22.30;79.00
40257;DHT22;25977;45.462;9.210;2023-06-04T06:12:04;22.30;78.90
40257;DHT22;25977;45.462;9.210;2023-06-04T06:14:31;22.40;78.80
40257;DHT22;25977;45.462;9.210;2023-06-04T06:16:58;22.80;78.00
40257;DHT22;25977;45.462;9.210;2023-06-04T06:19:24;23.00;77.40
40257;DHT22;25977;45.462;9.210;2023-06-04T06:21:50;23.10;76.80
40257;DHT22;25977;45.462;9.210;2023-06-04T06:24:15;23.30;76.40
40257;DHT22;25977;45.462;9.210;2023-06-04T06:26:41;23.60;75.40
40257;DHT22;25977;45.462;9.210;2023-06-04T06:29:10;24.20;73.50
40257;DHT22;25977;45.462;9.210;2023-06-04T06:31:36;24.50;72.60
40257;DHT22;25977;45.462;9.210;2023-06-04T06:34:02;24.80;71.70
40257;DHT22;25977;45.462;9.210;2023-06-04T06:36:27;25.10;71.70
40257;DHT22;25977;45.462;9.210;2023-06-04T06:38:54;25.20;71.40
40257;DHT22;25977;45.462;9.210;2023-06-04T06:41:19;25.10;71.90
40257;DHT22;25977;45.462;9.210;2023-06-04T06:43:46;25.00;71.10
40257;DHT22;25977;45.462;9.210;2023-06-04T06:46:12;24.50;72.40
40257;DHT22;25977;45.462;9.210;2023-06-04T06:48:38;24.40;72.20
40257;DHT22;25977;45.462;9.210;2023-06-04T06:51:03;23.90;73.20
40257;DHT22;25977;45.462;9.210;2023-06-04T06:53:29;23.90;73.30
40257;DHT22;25977;45.462;9.210;2023-06-04T06:55:55;24.00;73.30
40257;DHT22;25977;45.462;9.210;2023-06-04T06:58:21;23.90;73.70
40257;DHT22;25977;45.462;9.210;2023-06-04T07:00:48;23.90;73.90
40257;DHT22;25977;45.462;9.210;2023-06-04T07:03:14;24.00;73.70
40257;DHT22;25977;45.462;9.210;2023-06-04T07:05:40;23.90;73.90
40257;DHT22;25977;45.462;9.210;2023-06-04T07:08:06;24.10;74.40
40257;DHT22;25977;45.462;9.210;2023-06-04T07:10:31;24.30;74.00
40257;DHT22;25977;45.462;9.210;2023-06-04T07:12:57;24.40;73.40
40257;DHT22;25977;45.462;9.210;2023-06-04T07:15:23;24.50;73.40
40257;DHT22;25977;45.462;9.210;2023-06-04T07:17:48;24.50;73.30
40257;DHT22;25977;45.462;9.210;2023-06-04T07:20:14;24.40;73.40
40257;DHT22;25977;45.462;9.210;2023-06-04T07:22:40;24.40;73.50
40257;DHT22;25977;45.462;9.210;2023-06-04T07:25:06;24.30;73.40
40257;DHT22;25977;45.462;9.210;2023-06-04T07:27:33;23.90;74.50
40257;DHT22;25977;45.462;9.210;2023-06-04T07:29:59;23.70;75.00
40257;DHT22;25977;45.462;9.210;2023-06-04T07:32:25;23.80;75.20
40257;DHT22;25977;45.462;9.210;2023-06-04T07:34:51;24.00;74.80
40257;DHT22;25977;45.462;9.210;2023-06-04T07:37:16;24.20;74.40
40257;DHT22;25977;45.462;9.210;2023-06-04T07:39:42;24.10;74.50
40257;DHT22;25977;45.462;9.210;2023-06-04T07:42:08;24.00;75.00
40257;DHT22;25977;45.462;9.210;2023-06-04T07:44:34;24.30;74.10
40257;DHT22;25977;45.462;9.210;2023-06-04T07:47:00;24.30;74.10
40257;DHT22;25977;45.462;9.210;2023-06-04T07:49:26;24.60;73.20
40257;DHT22;25977;45.462;9.210;2023-06-04T07:51:52;24.70;72.50
40257;DHT22;25977;45.462;9.210;2023-06-04T07:54:17;24.80;72.10
40257;DHT22;25977;45.462;9.210;2023-06-04T07:56:43;24.80;71.90
40257;DHT22;25977;45.462;9.210;2023-06-04T07:59:09;24.80;72.10
40257;DHT22;25977;45.462;9.210;2023-06-04T08:01:35;24.70;72.50
40257;DHT22;25977;45.462;9.210;2023-06-04T08:04:00;24.60;72.80
40257;DHT22;25977;45.462;9.210;2023-06-04T08:06:26;24.50;73.20
40257;DHT22;25977;45.462;9.210;2023-06-04T08:08:52;24.40;73.40
40257;DHT22;25977;45.462;9.210;2023-06-04T08:11:18;24.30;73.60
40257;DHT22;25977;45.462;9.210;2023-06-04T08:13:44;24.30;74.10
40257;DHT22;25977;45.462;9.210;2023-06-04T08:16:09;24.10;74.40
40257;DHT22;25977;45.462;9.210;2023-06-04T08:18:41;24.00;74.90
40257;DHT22;25977;45.462;9.210;2023-06-04T08:21:24;23.80;75.50
40257;DHT22;25977;45.462;9.210;2023-06-04T08:23:50;23.80;75.80
40257;DHT22;25977;45.462;9.210;2023-06-04T08:26:15;23.80;76.00
40257;DHT22;25977;45.462;9.210;2023-06-04T08:28:41;23.80;76.00
40257;DHT22;25977;45.462;9.210;2023-06-04T08:31:06;23.90;75.90
40257;DHT22;25977;45.462;9.210;2023-06-04T08:33:32;24.00;75.90
40257;DHT22;25977;45.462;9.210;2023-06-04T08:35:58;23.90;76.00
40257;DHT22;25977;45.462;9.210;2023-06-04T08:38:23;23.90;75.90
40257;DHT22;25977;45.462;9.210;2023-06-04T08:40:52;23.90;75.90
40257;DHT22;25977;45.462;9.210;2023-06-04T08:43:18;24.00;76.00
40257;DHT22;25977;45.462;9.210;2023-06-04T08:45:49;23.90;76.30
40257;DHT22;25977;45.462;9.210;2023-06-04T08:48:18;23.60;77.00
40257;DHT22;25977;45.462;9.210;2023-06-04T08:50:47;23.60;77.20
40257;DHT22;25977;45.462;9.210;2023-06-04T08:53:15;23.70;77.10
40257;DHT22;25977;45.462;9.210;2023-06-04T08:55:41;23.80;76.90
40257;DHT22;25977;45.462;9.210;2023-06-04T08:58:09;23.80;76.70
40257;DHT22;25977;45.462;9.210;2023-06-04T09:00:36;23.80;77.00
40257;DHT22;25977;45.462;9.210;2023-06-04T09:03:02;23.90;77.40
40257;DHT22;25977;45.462;9.210;2023-06-04T09:05:31;23.90;77.80
40257;DHT22;25977;45.462;9.210;2023-06-04T09:08:00;23.90;78.40
40257;DHT22;25977;45.462;9.210;2023-06-04T09:10:26;23.90;79.40
40257;DHT22;25977;45.462;9.210;2023-06-04T09:12:57;23.90;79.90
40257;DHT22;25977;45.462;9.210;2023-06-04T09:15:24;23.90;79.80
40257;DHT22;25977;45.462;9.210;2023-06-04T09:17:50;23.90;80.00
40257;DHT22;25977;45.462;9.210;2023-06-04T09:20:22;23.90;80.10
40257;DHT22;25977;45.462;9.210;2023-06-04T09:22:48;23.90;80.10
40257;DHT22;25977;45.462;9.210;2023-06-04T09:25:22;23.90;80.40
40257;DHT22;25977;45.462;9.210;2023-06-04T09:27:48;23.80;80.20
40257;DHT22;25977;45.462;9.210;2023-06-04T09:30:15;23.80;80.00
40257;DHT22;25977;45.462;9.210;2023-06-04T09:32:41;23.80;80.20
40257;DHT22;25977;45.462;9.210;2023-06-04T09:35:15;23.80;80.10
40257;DHT22;25977;45.462;9.210;2023-06-04T09:37:41;23.80;82.90
40257;DHT22;25977;45.462;9.210;2023-06-04T09:40:09;23.60;83.90
40257;DHT22;25977;45.462;9.210;2023-06-04T09:42:45;23.60;84.20
40257;DHT22;25977;45.462;9.210;2023-06-04T09:45:12;23.50;85.50
40257;DHT22;25977;45.462;9.210;2023-06-04T09:47:44;23.30;84.80
40257;DHT22;25977;45.462;9.210;2023-06-04T09:50:13;23.10;86.30
40257;DHT22;25977;45.462;9.210;2023-06-04T09:52:39;22.90;86.60
40257;DHT22;25977;45.462;9.210;2023-06-04T09:55:18;22.90;87.90
40257;DHT22;25977;45.462;9.210;2023-06-04T09:57:47;22.70;85.50
40257;DHT22;25977;45.462;9.210;2023-06-04T10:00:21;22.50;84.10
40257;DHT22;25977;45.462;9.210;2023-06-04T10:02:49;22.60;84.90
40257;DHT22;25977;45.462;9.210;2023-06-04T10:05:15;22.60;85.90
40257;DHT22;25977;45.462;9.210;2023-06-04T10:07:45;22.60;87.00
40257;DHT22;25977;45.462;9.210;2023-06-04T10:10:17;22.50;87.90
40257;DHT22;25977;45.462;9.210;2023-06-04T10:12:45;22.60;87.90
40257;DHT22;25977;45.462;9.210;2023-06-04T10:15:12;22.50;87.90
40257;DHT22;25977;45.462;9.210;2023-06-04T10:17:39;22.30;87.80
40257;DHT22;25977;45.462;9.210;2023-06-04T10:20:07;22.30;87.70
40257;DHT22;25977;45.462;9.210;2023-06-04T10:22:34;22.30;88.90
40257;DHT22;25977;45.462;9.210;2023-06-04T10:25:01;22.30;90.00
40257;DHT22;25977;45.462;9.210;2023-06-04T10:27:30;22.30;88.90
40257;DHT22;25977;45.462;9.210;2023-06-04T10:29:57;22.30;88.80
40257;DHT22;25977;45.462;9.210;2023-06-04T10:32:27;22.20;87.40
40257;DHT22;25977;45.462;9.210;2023-06-04T10:34:52;22.20;87.10
40257;DHT22;25977;45.462;9.210;2023-06-04T10:37:19;22.20;87.50
40257;DHT22;25977;45.462;9.210;2023-06-04T10:39:51;22.10;88.60
40257;DHT22;25977;45.462;9.210;2023-06-04T10:42:18;22.10;89.40
40257;DHT22;25977;45.462;9.210;2023-06-04T10:44:55;22.10;89.00
40257;DHT22;25977;45.462;9.210;2023-06-04T10:47:25;22.10;88.20
40257;DHT22;25977;45.462;9.210;2023-06-04T10:49:52;21.90;88.60
40257;DHT22;25977;45.462;9.210;2023-06-04T10:52:18;21.90;88.80
40257;DHT22;25977;45.462;9.210;2023-06-04T10:54:45;21.90;89.90
40257;DHT22;25977;45.462;9.210;2023-06-04T10:57:16;21.90;90.00
40257;DHT22;25977;45.462;9.210;2023-06-04T10:59:56;22.00;90.00
40257;DHT22;25977;45.462;9.210;2023-06-04T11:02:22;21.90;90.30
40257;DHT22;25977;45.462;9.210;2023-06-04T11:05:05;21.90;90.70
40257;DHT22;25977;45.462;9.210;2023-06-04T11:07:45;21.80;91.00
40257;DHT22;25977;45.462;9.210;2023-06-04T11:10:12;21.80;91.20
40257;DHT22;25977;45.462;9.210;2023-06-04T11:12:49;21.80;91.10
40257;DHT22;25977;45.462;9.210;2023-06-04T11:15:18;21.80;90.50
40257;DHT22;25977;45.462;9.210;2023-06-04T11:17:55;22.00;90.50
40257;DHT22;25977;45.462;9.210;2023-06-04T11:20:22;21.90;88.20
40257;DHT22;25977;45.462;9.210;2023-06-04T11:22:55;22.00;88.00
40257;DHT22;25977;45.462;9.210;2023-06-04T11:25:23;22.10;87.20
40257;DHT22;25977;45.462;9.210;2023-06-04T11:27:49;21.90;86.50
40257;DHT22;25977;45.462;9.210;2023-06-04T11:30:16;22.10;86.30
40257;DHT22;25977;45.462;9.210;2023-06-04T11:32:41;22.10;85.80
40257;DHT22;25977;45.462;9.210;2023-06-04T11:35:07;22.30;86.10
40257;DHT22;25977;45.462;9.210;2023-06-04T11:37:34;22.50;85.80
40257;DHT22;25977;45.462;9.210;2023-06-04T11:40:00;22.40;84.30
40257;DHT22;25977;45.462;9.210;2023-06-04T11:42:27;22.70;84.90
40257;DHT22;25977;45.462;9.210;2023-06-04T11:44:56;22.80;83.90
40257;DHT22;25977;45.462;9.210;2023-06-04T11:47:23;22.90;85.10
40257;DHT22;25977;45.462;9.210;2023-06-04T11:49:57;22.90;83.90
40257;DHT22;25977;45.462;9.210;2023-06-04T11:52:22;23.00;82.80
40257;DHT22;25977;45.462;9.210;2023-06-04T11:54:48;22.90;81.00
40257;DHT22;25977;45.462;9.210;2023-06-04T11:57:14;22.90;82.00
40257;DHT22;25977;45.462;9.210;2023-06-04T11:59:40;23.00;82.30
40257;DHT22;25977;45.462;9.210;2023-06-04T12:02:07;23.20;81.30
40257;DHT22;25977;45.462;9.210;2023-06-04T12:04:33;23.30;80.60
40257;DHT22;25977;45.462;9.210;2023-06-04T12:07:01;23.30;80.30
40257;DHT22;25977;45.462;9.210;2023-06-04T12:09:29;23.40;78.90
40257;DHT22;25977;45.462;9.210;2023-06-04T12:12:01;23.40;77.30
40257;DHT22;25977;45.462;9.210;2023-06-04T12:14:27;23.40;77.80
40257;DHT22;25977;45.462;9.210;2023-06-04T12:16:57;23.40;77.70
40257;DHT22;25977;45.462;9.210;2023-06-04T12:19:23;23.50;78.10
40257;DHT22;25977;45.462;9.210;2023-06-04T12:24:26;23.70;77.20
40257;DHT22;25977;45.462;9.210;2023-06-04T12:27:04;23.90;77.70
40257;DHT22;25977;45.462;9.210;2023-06-04T12:29:30;24.00;76.00
40257;DHT22;25977;45.462;9.210;2023-06-04T12:32:07;24.10;76.00
40257;DHT22;25977;45.462;9.210;2023-06-04T12:34:39;24.20;76.50
40257;DHT22;25977;45.462;9.210;2023-06-04T12:37:06;24.30;75.30
40257;DHT22;25977;45.462;9.210;2023-06-04T12:39:36;24.40;74.80
40257;DHT22;25977;45.462;9.210;2023-06-04T12:42:07;24.40;74.30
40257;DHT22;25977;45.462;9.210;2023-06-04T12:44:36;24.50;73.50
40257;DHT22;25977;45.462;9.210;2023-06-04T12:47:05;24.50;73.40
40257;DHT22;25977;45.462;9.210;2023-06-04T12:49:31;24.60;70.30
40257;DHT22;25977;45.462;9.210;2023-06-04T12:51:56;24.60;70.50
40257;DHT22;25977;45.462;9.210;2023-06-04T12:54:22;24.60;72.50
40257;DHT22;25977;45.462;9.210;2023-06-04T12:56:48;24.60;72.50
40257;DHT22;25977;45.462;9.210;2023-06-04T12:59:14;24.60;72.30
40257;DHT22;25977;45.462;9.210;2023-06-04T13:01:40;24.80;72.60
40257;DHT22;25977;45.462;9.210;2023-06-04T13:04:06;24.90;71.80
40257;DHT22;25977;45.462;9.210;2023-06-04T13:06:33;24.80;71.60
40257;DHT22;25977;45.462;9.210;2023-06-04T13:08:59;24.80;71.10
40257;DHT22;25977;45.462;9.210;2023-06-04T13:11:24;24.90;70.80
40257;DHT22;25977;45.462;9.210;2023-06-04T13:13:50;24.90;71.00
40257;DHT22;25977;45.462;9.210;2023-06-04T13:16:16;25.00;71.70
40257;DHT22;25977;45.462;9.210;2023-06-04T13:18:41;25.00;71.50
40257;DHT22;25977;45.462;9.210;2023-06-04T13:21:07;24.90;71.80
40257;DHT22;25977;45.462;9.210;2023-06-04T13:23:33;25.00;72.00
40257;DHT22;25977;45.462;9.210;2023-06-04T13:25:58;24.70;70.80
40257;DHT22;25977;45.462;9.210;2023-06-04T13:28:24;25.10;71.30
40257;DHT22;25977;45.462;9.210;2023-06-04T13:30:50;25.00;71.70
40257;DHT22;25977;45.462;9.210;2023-06-04T13:33:15;25.00;71.40
40257;DHT22;25977;45.462;9.210;2023-06-04T13:35:42;25.00;71.70
40257;DHT22;25977;45.462;9.210;2023-06-04T13:38:08;25.00;72.20
40257;DHT22;25977;45.462;9.210;2023-06-04T13:40:36;24.80;72.30
40257;DHT22;25977;45.462;9.210;2023-06-04T13:43:02;24.70;72.80
40257;DHT22;25977;45.462;9.210;2023-06-04T13:45:28;24.70;72.90
40257;DHT22;25977;45.462;9.210;2023-06-04T13:47:54;24.70;73.10
40257;DHT22;25977;45.462;9.210;2023-06-04T13:50:20;24.80;73.30
40257;DHT22;25977;45.462;9.210;2023-06-04T13:52:45;25.00;72.90
40257;DHT22;25977;45.462;9.210;2023-06-04T13:55:14;25.10;72.50
40257;DHT22;25977;45.462;9.210;2023-06-04T13:57:40;25.30;72.20
40257;DHT22;25977;45.462;9.210;2023-06-04T14:00:06;25.40;72.20
40257;DHT22;25977;45.462;9.210;2023-06-04T14:02:33;25.20;72.50
40257;DHT22;25977;45.462;9.210;2023-06-04T14:04:58;25.30;72.30
40257;DHT22;25977;45.462;9.210;2023-06-04T14:07:24;25.40;72.70
40257;DHT22;25977;45.462;9.210;2023-06-04T14:09:50;25.40;72.40
40257;DHT22;25977;45.462;9.210;2023-06-04T14:12:21;25.40;72.40
40257;DHT22;25977;45.462;9.210;2023-06-04T14:14:46;25.50;72.00
40257;DHT22;25977;45.462;9.210;2023-06-04T14:17:12;25.40;72.20
40257;DHT22;25977;45.462;9.210;2023-06-04T14:19:39;25.20;72.90
40257;DHT22;25977;45.462;9.210;2023-06-04T14:22:05;25.30;72.90
40257;DHT22;25977;45.462;9.210;2023-06-04T14:24:31;25.40;72.60
40257;DHT22;25977;45.462;9.210;2023-06-04T14:26:57;25.50;72.30
40257;DHT22;25977;45.462;9.210;2023-06-04T14:29:23;25.60;72.10
40257;DHT22;25977;45.462;9.210;2023-06-04T14:31:48;25.70;71.80
40257;DHT22;25977;45.462;9.210;2023-06-04T14:34:14;25.70;71.70
40257;DHT22;25977;45.462;9.210;2023-06-04T14:36:40;25.70;71.40
40257;DHT22;25977;45.462;9.210;2023-06-04T14:39:05;25.60;71.60
40257;DHT22;25977;45.462;9.210;2023-06-04T14:41:31;25.60;71.50
40257;DHT22;25977;45.462;9.210;2023-06-04T14:43:57;25.60;71.30
40257;DHT22;25977;45.462;9.210;2023-06-04T14:46:23;25.60;71.10
40257;DHT22;25977;45.462;9.210;2023-06-04T14:48:49;25.50;71.10
40257;DHT22;25977;45.462;9.210;2023-06-04T14:51:15;25.40;71.50
40257;DHT22;25977;45.462;9.210;2023-06-04T14:53:41;25.40;72.00
40257;DHT22;25977;45.462;9.210;2023-06-04T14:56:06;25.40;71.70
40257;DHT22;25977;45.462;9.210;2023-06-04T14:58:32;25.40;71.30
40257;DHT22;25977;45.462;9.210;2023-06-04T15:01:01;25.40;71.60
40257;DHT22;25977;45.462;9.210;2023-06-04T15:03:29;25.50;71.30
40257;DHT22;25977;45.462;9.210;2023-06-04T15:05:55;25.40;71.30
40257;DHT22;25977;45.462;9.210;2023-06-04T15:08:21;25.30;71.40
40257;DHT22;25977;45.462;9.210;2023-06-04T15:10:46;25.30;71.40
40257;DHT22;25977;45.462;9.210;2023-06-04T15:13:12;25.40;71.00
40257;DHT22;25977;45.462;9.210;2023-06-04T15:15:38;25.40;71.20
40257;DHT22;25977;45.462;9.210;2023-06-04T15:18:03;25.40;71.10
40257;DHT22;25977;45.462;9.210;2023-06-04T15:20:32;25.40;71.40
40257;DHT22;25977;45.462;9.210;2023-06-04T15:22:58;25.40;71.80
40257;DHT22;25977;45.462;9.210;2023-06-04T15:25:24;25.40;71.40
40257;DHT22;25977;45.462;9.210;2023-06-04T15:27:50;25.50;71.30
40257;DHT22;25977;45.462;9.210;2023-06-04T15:30:16;25.50;71.00
40257;DHT22;25977;45.462;9.210;2023-06-04T15:32:43;25.30;71.30
40257;DHT22;25977;45.462;9.210;2023-06-04T15:35:10;25.30;71.40